sensor_id;sensor_type;location;lat;lon;timestamp;P1;durP1;ratioP1;P2;durP2;ratioP2
77769;SDS011;66961;51.482;9.160;2024-01-15T00:01:06;9.33;;;4.63;;
77769;SDS011;66961;51.482;9.160;2024-01-15T00:03:31;8.23;;;4.50;;
77769;SDS011;66961;51.482;9.160;2024-01-15T00:05:57;10.33;;;4.53;;
77769;SDS011;66961;51.482;9.160;2024-01-15T00:08:22;9.00;;;4.93;;
77769;SDS011;66961;51.482;9.160;2024-01-15T00:10:47;10.53;;;4.73;;
77769;SDS011;66961;51.482;9.160;2024-01-15T00:13:13;8.00;;;4.27;;
77769;SDS011;66961;51.482;9.160;2024-01-15T00:15:38;7.80;;;3.97;;
77769;SDS011;66961;51.482;9.160;2024-01-15T00:18:03;5.73;;;3.43;;
77769;SDS011;66961;51.482;9.160;2024-01-15T00:20:29;8.43;;;4.10;;
77769;SDS011;66961;51.482;9.160;2024-01-15T00:22:54;11.97;;;5.70;;
77769;SDS011;66961;51.482;9.160;2024-01-15T00:25:19;9.53;;;4.50;;
77769;SDS011;66961;51.482;9.160;2024-01-15T00:27:44;9.17;;;4.17;;
77769;SDS011;66961;51.482;9.160;2024-01-15T00:30:10;10.03;;;4.20;;
77769;SDS011;66961;51.482;9.160;2024-01-15T00:32:35;9.23;;;4.47;;
77769;SDS011;66961;51.482;9.160;2024-01-15T00:35:01;8.27;;;4.30;;
77769;SDS011;66961;51.482;9.160;2024-01-15T00:37:26;7.90;;;4.67;;
77769;SDS011;66961;51.482;9.160;2024-01-15T00:39:51;8.77;;;4.67;;
77769;SDS011;66961;51.482;9.160;2024-01-15T00:42:16;7.87;;;4.60;;
77769;SDS011;66961;51.482;9.160;2024-01-15T00:44:42;8.67;;;4.13;;
77769;SDS011;66961;51.482;9.160;2024-01-15T00:47:07;9.40;;;4.72;;
77769;SDS011;66961;51.482;9.160;2024-01-15T00:49:32;7.77;;;4.53;;
77769;SDS011;66961;51.482;9.160;2024-01-15T00:51:58;9.97;;;4.50;;
77769;SDS011;66961;51.482;9.160;2024-01-15T00:54:23;11.83;;;4.77;;
77769;SDS011;66961;51.482;9.160;2024-01-15T00:56:48;7.00;;;3.40;;
77769;SDS011;66961;51.482;9.160;2024-01-15T00:59:13;8.00;;;4.20;;
77769;SDS011;66961;51.482;9.160;2024-01-15T01:01:39;8.80;;;4.17;;
77769;SDS011;66961;51.482;9.160;2024-01-15T01:04:04;7.57;;;4.23;;
77769;SDS011;66961;51.482;9.160;2024-01-15T01:06:29;8.07;;;3.80;;
77769;SDS011;66961;51.482;9.160;2024-01-15T01:08:54;5.93;;;3.23;;
77769;SDS011;66961;51.482;9.160;2024-01-15T01:11:20;4.63;;;2.47;;
77769;SDS011;66961;51.482;9.160;2024-01-15T01:13:45;6.50;;;2.77;;
77769;SDS011;66961;51.482;9.160;2024-01-15T01:16:10;7.53;;;3.13;;
77769;SDS011;66961;51.482;9.160;2024-01-15T01:18:35;6.33;;;2.90;;
77769;SDS011;66961;51.482;9.160;2024-01-15T01:21:01;5.50;;;2.63;;
77769;SDS011;66961;51.482;9.160;2024-01-15T01:23:26;6.00;;;3.03;;
77769;SDS011;66961;51.482;9.160;2024-01-15T01:25:51;6.73;;;3.10;;
77769;SDS011;66961;51.482;9.160;2024-01-15T01:28:16;6.83;;;3.27;;
77769;SDS011;66961;51.482;9.160;2024-01-15T01:30:42;10.07;;;4.10;;
77769;SDS011;66961;51.482;9.160;2024-01-15T01:33:07;6.93;;;3.83;;
77769;SDS011;66961;51.482;9.160;2024-01-15T01:35:32;9.97;;;5.27;;
77769;SDS011;66961;51.482;9.160;2024-01-15T01:37:58;7.40;;;4.70;;
77769;SDS011;66961;51.482;9.160;2024-01-15T01:40:23;8.43;;;4.77;;
77769;SDS011;66961;51.482;9.160;2024-01-15T01:42:48;12.60;;;5.30;;
77769;SDS011;66961;51.482;9.160;2024-01-15T01:45:14;9.45;;;5.32;;
77769;SDS011;66961;51.482;9.160;2024-01-15T01:47:39;9.70;;;5.22;;
77769;SDS011;66961;51.482;9.160;2024-01-15T01:50:05;11.17;;;5.10;;
77769;SDS011;66961;51.482;9.160;2024-01-15T01:52:31;10.88;;;5.10;;
77769;SDS011;66961;51.482;9.160;2024-01-15T01:54:56;11.23;;;5.18;;
77769;SDS011;66961;51.482;9.160;2024-01-15T01:57:22;11.63;;;5.47;;
77769;SDS011;66961;51.482;9.160;2024-01-15T01:59:47;12.70;;;6.63;;
77769;SDS011;66961;51.482;9.160;2024-01-15T02:02:13;12.20;;;6.32;;
77769;SDS011;66961;51.482;9.160;2024-01-15T02:04:39;10.25;;;5.53;;
77769;SDS011;66961;51.482;9.160;2024-01-15T02:07:07;9.95;;;5.20;;
77769;SDS011;66961;51.482;9.160;2024-01-15T02:09:32;15.30;;;5.85;;
77769;SDS011;66961;51.482;9.160;2024-01-15T02:11:58;13.57;;;5.47;;
77769;SDS011;66961;51.482;9.160;2024-01-15T02:14:23;14.45;;;5.68;;
77769;SDS011;66961;51.482;9.160;2024-01-15T02:16:48;10.75;;;5.05;;
77769;SDS011;66961;51.482;9.160;2024-01-15T02:19:17;11.98;;;5.80;;
77769;SDS011;66961;51.482;9.160;2024-01-15T02:21:43;14.10;;;6.00;;
77769;SDS011;66961;51.482;9.160;2024-01-15T02:24:09;10.75;;;6.25;;
77769;SDS011;66961;51.482;9.160;2024-01-15T02:26:34;13.10;;;5.80;;
77769;SDS011;66961;51.482;9.160;2024-01-15T02:29:00;16.15;;;6.43;;
77769;SDS011;66961;51.482;9.160;2024-01-15T02:31:25;10.52;;;4.97;;
77769;SDS011;66961;51.482;9.160;2024-01-15T02:33:51;12.67;;;5.30;;
77769;SDS011;66961;51.482;9.160;2024-01-15T02:36:19;12.70;;;5.50;;
77769;SDS011;66961;51.482;9.160;2024-01-15T02:38:44;14.88;;;5.32;;
77769;SDS011;66961;51.482;9.160;2024-01-15T02:41:09;11.17;;;5.03;;
77769;SDS011;66961;51.482;9.160;2024-01-15T02:43:34;13.33;;;4.80;;
77769;SDS011;66961;51.482;9.160;2024-01-15T02:46:00;15.37;;;5.00;;
77769;SDS011;66961;51.482;9.160;2024-01-15T02:48:25;11.53;;;4.87;;
77769;SDS011;66961;51.482;9.160;2024-01-15T02:50:50;13.00;;;5.17;;
77769;SDS011;66961;51.482;9.160;2024-01-15T02:53:15;13.37;;;4.47;;
77769;SDS011;66961;51.482;9.160;2024-01-15T02:55:41;12.73;;;4.90;;
77769;SDS011;66961;51.482;9.160;2024-01-15T02:58:06;9.77;;;3.80;;
77769;SDS011;66961;51.482;9.160;2024-01-15T03:00:32;9.98;;;3.88;;
77769;SDS011;66961;51.482;9.160;2024-01-15T03:02:57;9.20;;;3.97;;
77769;SDS011;66961;51.482;9.160;2024-01-15T03:05:22;9.57;;;4.47;;
77769;SDS011;66961;51.482;9.160;2024-01-15T03:07:48;9.77;;;3.97;;
77769;SDS011;66961;51.482;9.160;2024-01-15T03:10:13;9.63;;;4.13;;
77769;SDS011;66961;51.482;9.160;2024-01-15T03:12:38;10.77;;;4.17;;
77769;SDS011;66961;51.482;9.160;2024-01-15T03:15:04;9.20;;;3.83;;
77769;SDS011;66961;51.482;9.160;2024-01-15T03:17:29;8.32;;;3.35;;
77769;SDS011;66961;51.482;9.160;2024-01-15T03:19:55;9.20;;;3.83;;
77769;SDS011;66961;51.482;9.160;2024-01-15T03:22:20;10.90;;;3.93;;
77769;SDS011;66961;51.482;9.160;2024-01-15T03:24:45;12.03;;;3.93;;
77769;SDS011;66961;51.482;9.160;2024-01-15T03:27:10;12.17;;;4.40;;
77769;SDS011;66961;51.482;9.160;2024-01-15T03:29:36;10.32;;;3.55;;
77769;SDS011;66961;51.482;9.160;2024-01-15T03:32:01;8.20;;;3.83;;
77769;SDS011;66961;51.482;9.160;2024-01-15T03:34:26;7.70;;;3.63;;
77769;SDS011;66961;51.482;9.160;2024-01-15T03:36:52;11.45;;;4.40;;
77769;SDS011;66961;51.482;9.160;2024-01-15T03:39:17;10.47;;;3.80;;
77769;SDS011;66961;51.482;9.160;2024-01-15T03:41:42;10.70;;;4.23;;
77769;SDS011;66961;51.482;9.160;2024-01-15T03:44:07;11.67;;;3.40;;
77769;SDS011;66961;51.482;9.160;2024-01-15T03:46:33;6.27;;;3.00;;
77769;SDS011;66961;51.482;9.160;2024-01-15T03:48:58;11.93;;;3.73;;
77769;SDS011;66961;51.482;9.160;2024-01-15T03:51:23;13.50;;;4.37;;
77769;SDS011;66961;51.482;9.160;2024-01-15T03:53:49;6.88;;;3.22;;
77769;SDS011;66961;51.482;9.160;2024-01-15T03:56:14;8.90;;;3.77;;
77769;SDS011;66961;51.482;9.160;2024-01-15T03:58:40;12.13;;;3.47;;
77769;SDS011;66961;51.482;9.160;2024-01-15T04:01:11;8.80;;;3.73;;
77769;SDS011;66961;51.482;9.160;2024-01-15T04:03:37;11.80;;;4.50;;
77769;SDS011;66961;51.482;9.160;2024-01-15T04:06:03;6.68;;;3.22;;
77769;SDS011;66961;51.482;9.160;2024-01-15T04:08:29;11.10;;;3.58;;
77769;SDS011;66961;51.482;9.160;2024-01-15T04:10:54;10.93;;;3.60;;
77769;SDS011;66961;51.482;9.160;2024-01-15T04:13:20;10.30;;;4.67;;
77769;SDS011;66961;51.482;9.160;2024-01-15T04:15:45;12.88;;;4.75;;
77769;SDS011;66961;51.482;9.160;2024-01-15T04:18:15;13.88;;;4.25;;
77769;SDS011;66961;51.482;9.160;2024-01-15T04:20:41;6.50;;;3.50;;
77769;SDS011;66961;51.482;9.160;2024-01-15T04:23:06;8.93;;;3.03;;
77769;SDS011;66961;51.482;9.160;2024-01-15T04:25:31;10.63;;;4.37;;
77769;SDS011;66961;51.482;9.160;2024-01-15T04:27:56;9.50;;;3.43;;
77769;SDS011;66961;51.482;9.160;2024-01-15T04:30:22;8.33;;;3.27;;
77769;SDS011;66961;51.482;9.160;2024-01-15T04:32:47;10.33;;;3.20;;
77769;SDS011;66961;51.482;9.160;2024-01-15T04:35:12;11.40;;;3.30;;
77769;SDS011;66961;51.482;9.160;2024-01-15T04:37:38;10.10;;;3.13;;
77769;SDS011;66961;51.482;9.160;2024-01-15T04:40:04;12.27;;;3.35;;
77769;SDS011;66961;51.482;9.160;2024-01-15T04:42:30;9.88;;;3.47;;
77769;SDS011;66961;51.482;9.160;2024-01-15T04:44:55;11.27;;;2.77;;
77769;SDS011;66961;51.482;9.160;2024-01-15T04:47:20;9.33;;;3.27;;
77769;SDS011;66961;51.482;9.160;2024-01-15T04:49:45;8.70;;;3.50;;
77769;SDS011;66961;51.482;9.160;2024-01-15T04:52:11;8.40;;;3.80;;
77769;SDS011;66961;51.482;9.160;2024-01-15T04:54:36;9.67;;;3.33;;
77769;SDS011;66961;51.482;9.160;2024-01-15T04:57:01;14.52;;;3.83;;
77769;SDS011;66961;51.482;9.160;2024-01-15T04:59:27;7.90;;;3.42;;
77769;SDS011;66961;51.482;9.160;2024-01-15T05:01:52;9.52;;;3.78;;
77769;SDS011;66961;51.482;9.160;2024-01-15T05:04:18;8.73;;;3.40;;
77769;SDS011;66961;51.482;9.160;2024-01-15T05:06:43;11.10;;;4.07;;
77769;SDS011;66961;51.482;9.160;2024-01-15T05:09:08;11.33;;;3.50;;
77769;SDS011;66961;51.482;9.160;2024-01-15T05:11:33;12.57;;;3.67;;
77769;SDS011;66961;51.482;9.160;2024-01-15T05:13:59;7.33;;;3.00;;
77769;SDS011;66961;51.482;9.160;2024-01-15T05:16:24;8.97;;;3.37;;
77769;SDS011;66961;51.482;9.160;2024-01-15T05:18:49;13.57;;;4.03;;
77769;SDS011;66961;51.482;9.160;2024-01-15T05:21:14;10.43;;;3.37;;
77769;SDS011;66961;51.482;9.160;2024-01-15T05:23:40;8.50;;;2.77;;
77769;SDS011;66961;51.482;9.160;2024-01-15T05:26:05;10.50;;;3.30;;
77769;SDS011;66961;51.482;9.160;2024-01-15T05:28:30;8.67;;;3.63;;
77769;SDS011;66961;51.482;9.160;2024-01-15T05:30:55;11.57;;;4.43;;
77769;SDS011;66961;51.482;9.160;2024-01-15T05:33:21;11.05;;;3.28;;
77769;SDS011;66961;51.482;9.160;2024-01-15T05:35:47;10.05;;;3.42;;
77769;SDS011;66961;51.482;9.160;2024-01-15T05:38:13;9.83;;;3.10;;
77769;SDS011;66961;51.482;9.160;2024-01-15T05:40:38;8.87;;;3.37;;
77769;SDS011;66961;51.482;9.160;2024-01-15T05:43:03;8.90;;;3.23;;
77769;SDS011;66961;51.482;9.160;2024-01-15T05:45:29;10.13;;;3.27;;
77769;SDS011;66961;51.482;9.160;2024-01-15T05:47:55;12.32;;;3.60;;
77769;SDS011;66961;51.482;9.160;2024-01-15T05:50:20;11.45;;;3.40;;
77769;SDS011;66961;51.482;9.160;2024-01-15T05:52:46;11.52;;;3.63;;
77769;SDS011;66961;51.482;9.160;2024-01-15T05:55:11;9.60;;;3.90;;
77769;SDS011;66961;51.482;9.160;2024-01-15T05:57:37;10.47;;;3.53;;
77769;SDS011;66961;51.482;9.160;2024-01-15T06:00:02;9.43;;;3.87;;
77769;SDS011;66961;51.482;9.160;2024-01-15T06:02:28;8.80;;;3.33;;
77769;SDS011;66961;51.482;9.160;2024-01-15T06:04:54;13.03;;;3.83;;
77769;SDS011;66961;51.482;9.160;2024-01-15T06:07:19;9.87;;;4.13;;
77769;SDS011;66961;51.482;9.160;2024-01-15T06:09:44;12.00;;;4.10;;
77769;SDS011;66961;51.482;9.160;2024-01-15T06:12:09;10.87;;;3.97;;
77769;SDS011;66961;51.482;9.160;2024-01-15T06:14:35;9.87;;;3.60;;
77769;SDS011;66961;51.482;9.160;2024-01-15T06:17:00;8.53;;;3.63;;
77769;SDS011;66961;51.482;9.160;2024-01-15T06:19:25;9.10;;;3.50;;
77769;SDS011;66961;51.482;9.160;2024-01-15T06:21:50;11.10;;;3.80;;
77769;SDS011;66961;51.482;9.160;2024-01-15T06:24:16;8.17;;;3.33;;
77769;SDS011;66961;51.482;9.160;2024-01-15T06:26:41;9.80;;;3.93;;
77769;SDS011;66961;51.482;9.160;2024-01-15T06:29:06;15.07;;;4.20;;
77769;SDS011;66961;51.482;9.160;2024-01-15T06:31:31;9.23;;;3.40;;
77769;SDS011;66961;51.482;9.160;2024-01-15T06:33:57;10.77;;;3.63;;
77769;SDS011;66961;51.482;9.160;2024-01-15T06:36:23;11.50;;;3.95;;
77769;SDS011;66961;51.482;9.160;2024-01-15T06:38:48;10.70;;;4.47;;
77769;SDS011;66961;51.482;9.160;2024-01-15T06:41:13;11.33;;;3.77;;
77769;SDS011;66961;51.482;9.160;2024-01-15T06:43:38;11.33;;;3.20;;
77769;SDS011;66961;51.482;9.160;2024-01-15T06:46:04;8.10;;;3.20;;
77769;SDS011;66961;51.482;9.160;2024-01-15T06:48:29;10.53;;;4.23;;
77769;SDS011;66961;51.482;9.160;2024-01-15T06:50:54;10.93;;;4.43;;
77769;SDS011;66961;51.482;9.160;2024-01-15T06:53:20;14.43;;;3.80;;
77769;SDS011;66961;51.482;9.160;2024-01-15T06:55:45;14.80;;;4.40;;
77769;SDS011;66961;51.482;9.160;2024-01-15T06:58:10;11.27;;;4.87;;
77769;SDS011;66961;51.482;9.160;2024-01-15T07:00:35;13.63;;;4.63;;
77769;SDS011;66961;51.482;9.160;2024-01-15T07:03:01;11.13;;;4.00;;
77769;SDS011;66961;51.482;9.160;2024-01-15T07:05:26;11.13;;;4.60;;
77769;SDS011;66961;51.482;9.160;2024-01-15T07:07:51;17.00;;;4.43;;
77769;SDS011;66961;51.482;9.160;2024-01-15T07:10:16;11.20;;;3.60;;
77769;SDS011;66961;51.482;9.160;2024-01-15T07:12:42;15.37;;;4.93;;
77769;SDS011;66961;51.482;9.160;2024-01-15T07:15:08;10.13;;;3.85;;
77769;SDS011;66961;51.482;9.160;2024-01-15T07:17:34;13.18;;;3.97;;
77769;SDS011;66961;51.482;9.160;2024-01-15T07:20:00;9.40;;;3.30;;
77769;SDS011;66961;51.482;9.160;2024-01-15T07:22:26;13.18;;;4.93;;
77769;SDS011;66961;51.482;9.160;2024-01-15T07:24:51;13.23;;;3.73;;
77769;SDS011;66961;51.482;9.160;2024-01-15T07:27:16;12.73;;;3.93;;
77769;SDS011;66961;51.482;9.160;2024-01-15T07:29:41;7.40;;;3.23;;
77769;SDS011;66961;51.482;9.160;2024-01-15T07:32:07;6.67;;;2.90;;
77769;SDS011;66961;51.482;9.160;2024-01-15T07:34:32;8.57;;;3.17;;
77769;SDS011;66961;51.482;9.160;2024-01-15T07:36:57;8.63;;;3.67;;
77769;SDS011;66961;51.482;9.160;2024-01-15T07:39:22;12.57;;;4.20;;
77769;SDS011;66961;51.482;9.160;2024-01-15T07:41:48;11.07;;;3.30;;
77769;SDS011;66961;51.482;9.160;2024-01-15T07:44:13;11.03;;;3.20;;
77769;SDS011;66961;51.482;9.160;2024-01-15T07:46:38;5.77;;;2.83;;
77769;SDS011;66961;51.482;9.160;2024-01-15T07:49:04;11.07;;;3.83;;
77769;SDS011;66961;51.482;9.160;2024-01-15T07:51:29;11.67;;;4.03;;
77769;SDS011;66961;51.482;9.160;2024-01-15T07:53:54;8.60;;;3.47;;
77769;SDS011;66961;51.482;9.160;2024-01-15T07:56:19;13.27;;;3.90;;
77769;SDS011;66961;51.482;9.160;2024-01-15T07:58:45;7.60;;;3.43;;
77769;SDS011;66961;51.482;9.160;2024-01-15T08:01:10;11.17;;;3.10;;
77769;SDS011;66961;51.482;9.160;2024-01-15T08:03:35;11.03;;;3.63;;
77769;SDS011;66961;51.482;9.160;2024-01-15T08:06:00;8.20;;;3.70;;
77769;SDS011;66961;51.482;9.160;2024-01-15T08:08:26;6.50;;;3.60;;
77769;SDS011;66961;51.482;9.160;2024-01-15T08:10:54;7.00;;;3.33;;
77769;SDS011;66961;51.482;9.160;2024-01-15T08:13:20;8.00;;;3.13;;
77769;SDS011;66961;51.482;9.160;2024-01-15T08:15:45;7.82;;;3.90;;
77769;SDS011;66961;51.482;9.160;2024-01-15T08:18:20;11.27;;;3.60;;
77769;SDS011;66961;51.482;9.160;2024-01-15T08:20:45;6.80;;;3.10;;
77769;SDS011;66961;51.482;9.160;2024-01-15T08:23:11;9.43;;;3.30;;
77769;SDS011;66961;51.482;9.160;2024-01-15T08:25:36;7.57;;;3.43;;
77769;SDS011;66961;51.482;9.160;2024-01-15T08:28:01;11.70;;;3.80;;
77769;SDS011;66961;51.482;9.160;2024-01-15T08:30:26;7.53;;;3.50;;
77769;SDS011;66961;51.482;9.160;2024-01-15T08:32:52;8.47;;;4.20;;
77769;SDS011;66961;51.482;9.160;2024-01-15T08:35:17;9.23;;;3.43;;
77769;SDS011;66961;51.482;9.160;2024-01-15T08:37:42;7.90;;;3.33;;
77769;SDS011;66961;51.482;9.160;2024-01-15T08:40:08;13.00;;;3.87;;
77769;SDS011;66961;51.482;9.160;2024-01-15T08:42:33;7.63;;;2.90;;
77769;SDS011;66961;51.482;9.160;2024-01-15T08:44:59;10.63;;;3.77;;
77769;SDS011;66961;51.482;9.160;2024-01-15T08:47:24;9.23;;;3.40;;
77769;SDS011;66961;51.482;9.160;2024-01-15T08:49:49;6.30;;;3.10;;
77769;SDS011;66961;51.482;9.160;2024-01-15T08:52:15;6.97;;;2.40;;
77769;SDS011;66961;51.482;9.160;2024-01-15T08:54:40;5.93;;;3.40;;
77769;SDS011;66961;51.482;9.160;2024-01-15T08:57:05;9.97;;;3.40;;
77769;SDS011;66961;51.482;9.160;2024-01-15T08:59:30;7.27;;;2.80;;
77769;SDS011;66961;51.482;9.160;2024-01-15T09:01:56;5.40;;;3.27;;
77769;SDS011;66961;51.482;9.160;2024-01-15T09:04:21;7.83;;;3.03;;
77769;SDS011;66961;51.482;9.160;2024-01-15T09:06:46;6.67;;;3.50;;
77769;SDS011;66961;51.482;9.160;2024-01-15T09:09:12;7.85;;;3.80;;
77769;SDS011;66961;51.482;9.160;2024-01-15T09:11:38;9.00;;;4.22;;
77769;SDS011;66961;51.482;9.160;2024-01-15T09:14:03;11.80;;;3.90;;
77769;SDS011;66961;51.482;9.160;2024-01-15T09:16:28;10.97;;;4.70;;
77769;SDS011;66961;51.482;9.160;2024-01-15T09:18:53;9.37;;;4.30;;
77769;SDS011;66961;51.482;9.160;2024-01-15T09:21:19;10.23;;;4.63;;
77769;SDS011;66961;51.482;9.160;2024-01-15T09:23:45;7.13;;;3.75;;
77769;SDS011;66961;51.482;9.160;2024-01-15T09:26:10;11.97;;;4.03;;
77769;SDS011;66961;51.482;9.160;2024-01-15T09:28:35;9.37;;;4.50;;
77769;SDS011;66961;51.482;9.160;2024-01-15T09:31:00;9.17;;;4.00;;
77769;SDS011;66961;51.482;9.160;2024-01-15T09:33:26;10.60;;;4.23;;
77769;SDS011;66961;51.482;9.160;2024-01-15T09:35:51;7.97;;;4.60;;
77769;SDS011;66961;51.482;9.160;2024-01-15T09:38:16;10.57;;;3.60;;
77769;SDS011;66961;51.482;9.160;2024-01-15T09:40:43;6.77;;;3.67;;
77769;SDS011;66961;51.482;9.160;2024-01-15T09:43:10;6.78;;;3.55;;
77769;SDS011;66961;51.482;9.160;2024-01-15T09:45:36;10.98;;;3.42;;
77769;SDS011;66961;51.482;9.160;2024-01-15T09:48:01;7.88;;;3.15;;
77769;SDS011;66961;51.482;9.160;2024-01-15T09:50:27;7.43;;;2.67;;
77769;SDS011;66961;51.482;9.160;2024-01-15T09:52:52;6.70;;;2.80;;
77769;SDS011;66961;51.482;9.160;2024-01-15T09:55:18;7.38;;;2.53;;
77769;SDS011;66961;51.482;9.160;2024-01-15T09:57:43;9.07;;;3.40;;
77769;SDS011;66961;51.482;9.160;2024-01-15T10:00:09;7.22;;;2.38;;
77769;SDS011;66961;51.482;9.160;2024-01-15T10:02:35;6.47;;;3.00;;
77769;SDS011;66961;51.482;9.160;2024-01-15T10:05:01;8.20;;;2.67;;
77769;SDS011;66961;51.482;9.160;2024-01-15T10:07:26;9.27;;;3.38;;
77769;SDS011;66961;51.482;9.160;2024-01-15T10:09:54;6.97;;;2.50;;
77769;SDS011;66961;51.482;9.160;2024-01-15T10:12:20;7.03;;;2.60;;
77769;SDS011;66961;51.482;9.160;2024-01-15T10:14:46;7.68;;;3.28;;
77769;SDS011;66961;51.482;9.160;2024-01-15T10:17:13;7.53;;;3.00;;
77769;SDS011;66961;51.482;9.160;2024-01-15T10:19:38;7.22;;;3.50;;
77769;SDS011;66961;51.482;9.160;2024-01-15T10:22:04;5.20;;;3.00;;
77769;SDS011;66961;51.482;9.160;2024-01-15T10:24:29;5.63;;;2.63;;
77769;SDS011;66961;51.482;9.160;2024-01-15T10:27:08;8.40;;;3.20;;
77769;SDS011;66961;51.482;9.160;2024-01-15T10:29:35;7.55;;;3.20;;
77769;SDS011;66961;51.482;9.160;2024-01-15T10:32:00;4.95;;;2.75;;
77769;SDS011;66961;51.482;9.160;2024-01-15T10:34:26;6.05;;;3.05;;
77769;SDS011;66961;51.482;9.160;2024-01-15T10:36:51;9.13;;;3.20;;
77769;SDS011;66961;51.482;9.160;2024-01-15T10:39:17;5.43;;;2.28;;
77769;SDS011;66961;51.482;9.160;2024-01-15T10:41:42;5.20;;;2.60;;
77769;SDS011;66961;51.482;9.160;2024-01-15T10:44:07;3.92;;;2.10;;
77769;SDS011;66961;51.482;9.160;2024-01-15T10:46:33;4.00;;;1.95;;
77769;SDS011;66961;51.482;9.160;2024-01-15T10:49:01;5.78;;;2.17;;
77769;SDS011;66961;51.482;9.160;2024-01-15T10:51:27;4.60;;;2.28;;
77769;SDS011;66961;51.482;9.160;2024-01-15T10:53:53;3.83;;;1.98;;
77769;SDS011;66961;51.482;9.160;2024-01-15T10:56:21;3.70;;;2.00;;
77769;SDS011;66961;51.482;9.160;2024-01-15T10:58:47;4.53;;;2.20;;
77769;SDS011;66961;51.482;9.160;2024-01-15T11:01:13;4.43;;;2.10;;
77769;SDS011;66961;51.482;9.160;2024-01-15T11:03:39;3.97;;;2.03;;
77769;SDS011;66961;51.482;9.160;2024-01-15T11:06:15;3.92;;;1.90;;
77769;SDS011;66961;51.482;9.160;2024-01-15T11:08:42;3.15;;;1.90;;
77769;SDS011;66961;51.482;9.160;2024-01-15T11:11:07;6.10;;;1.63;;
77769;SDS011;66961;51.482;9.160;2024-01-15T11:18:45;6.85;;;1.80;;
77769;SDS011;66961;51.482;9.160;2024-01-15T11:21:27;4.93;;;2.20;;
77769;SDS011;66961;51.482;9.160;2024-01-15T11:23:56;9.13;;;4.75;;
77769;SDS011;66961;51.482;9.160;2024-01-15T11:26:30;5.28;;;2.85;;
77769;SDS011;66961;51.482;9.160;2024-01-15T11:28:56;6.47;;;2.30;;
77769;SDS011;66961;51.482;9.160;2024-01-15T11:31:28;10.20;;;3.75;;
77769;SDS011;66961;51.482;9.160;2024-01-15T11:34:14;6.00;;;3.17;;
77769;SDS011;66961;51.482;9.160;2024-01-15T11:44:23;3.67;;;1.80;;
77769;SDS011;66961;51.482;9.160;2024-01-15T11:47:10;4.43;;;1.67;;
77769;SDS011;66961;51.482;9.160;2024-01-15T11:52:16;7.72;;;1.75;;
77769;SDS011;66961;51.482;9.160;2024-01-15T11:54:45;6.05;;;2.30;;
77769;SDS011;66961;51.482;9.160;2024-01-15T11:57:24;4.15;;;2.55;;
77769;SDS011;66961;51.482;9.160;2024-01-15T11:59:56;4.68;;;3.15;;
77769;SDS011;66961;51.482;9.160;2024-01-15T12:02:22;4.60;;;3.53;;
77769;SDS011;66961;51.482;9.160;2024-01-15T12:04:48;5.50;;;3.20;;
77769;SDS011;66961;51.482;9.160;2024-01-15T12:07:13;10.40;;;3.90;;
77769;SDS011;66961;51.482;9.160;2024-01-15T12:09:43;8.40;;;4.27;;
77769;SDS011;66961;51.482;9.160;2024-01-15T12:12:09;4.68;;;2.60;;
77769;SDS011;66961;51.482;9.160;2024-01-15T12:14:43;6.63;;;3.92;;
77769;SDS011;66961;51.482;9.160;2024-01-15T12:17:08;5.57;;;2.88;;
77769;SDS011;66961;51.482;9.160;2024-01-15T12:19:33;7.07;;;3.30;;
77769;SDS011;66961;51.482;9.160;2024-01-15T12:21:59;4.72;;;2.60;;
77769;SDS011;66961;51.482;9.160;2024-01-15T12:24:24;5.90;;;2.67;;
77769;SDS011;66961;51.482;9.160;2024-01-15T12:26:49;4.93;;;2.47;;
77769;SDS011;66961;51.482;9.160;2024-01-15T12:29:17;6.90;;;2.37;;
77769;SDS011;66961;51.482;9.160;2024-01-15T12:31:43;4.57;;;2.10;;
77769;SDS011;66961;51.482;9.160;2024-01-15T12:34:11;6.13;;;2.30;;
77769;SDS011;66961;51.482;9.160;2024-01-15T12:36:36;5.50;;;2.20;;
77769;SDS011;66961;51.482;9.160;2024-01-15T12:39:01;3.10;;;2.03;;
77769;SDS011;66961;51.482;9.160;2024-01-15T12:41:27;3.03;;;1.90;;
77769;SDS011;66961;51.482;9.160;2024-01-15T12:43:52;3.38;;;1.80;;
77769;SDS011;66961;51.482;9.160;2024-01-15T12:46:17;3.23;;;1.73;;
77769;SDS011;66961;51.482;9.160;2024-01-15T12:48:43;5.40;;;2.03;;
77769;SDS011;66961;51.482;9.160;2024-01-15T12:51:08;4.47;;;1.43;;
77769;SDS011;66961;51.482;9.160;2024-01-15T12:53:33;6.00;;;1.87;;
77769;SDS011;66961;51.482;9.160;2024-01-15T12:55:59;4.40;;;1.73;;
77769;SDS011;66961;51.482;9.160;2024-01-15T12:58:24;5.23;;;2.00;;
77769;SDS011;66961;51.482;9.160;2024-01-15T13:00:49;5.80;;;2.20;;
77769;SDS011;66961;51.482;9.160;2024-01-15T13:03:15;5.07;;;2.75;;
77769;SDS011;66961;51.482;9.160;2024-01-15T13:05:40;5.72;;;2.35;;
77769;SDS011;66961;51.482;9.160;2024-01-15T13:08:06;7.50;;;2.58;;
77769;SDS011;66961;51.482;9.160;2024-01-15T13:10:31;5.90;;;2.40;;
77769;SDS011;66961;51.482;9.160;2024-01-15T13:12:56;6.43;;;2.97;;
77769;SDS011;66961;51.482;9.160;2024-01-15T13:15:22;4.70;;;2.47;;
77769;SDS011;66961;51.482;9.160;2024-01-15T13:17:47;5.10;;;2.40;;
77769;SDS011;66961;51.482;9.160;2024-01-15T13:20:12;4.63;;;1.90;;
77769;SDS011;66961;51.482;9.160;2024-01-15T13:22:38;5.67;;;2.30;;
77769;SDS011;66961;51.482;9.160;2024-01-15T13:25:03;5.13;;;2.07;;
77769;SDS011;66961;51.482;9.160;2024-01-15T13:27:28;5.00;;;1.90;;
77769;SDS011;66961;51.482;9.160;2024-01-15T13:29:54;4.53;;;2.13;;
77769;SDS011;66961;51.482;9.160;2024-01-15T13:32:23;7.97;;;2.10;;
77769;SDS011;66961;51.482;9.160;2024-01-15T13:34:50;3.70;;;2.10;;
77769;SDS011;66961;51.482;9.160;2024-01-15T13:37:15;5.10;;;2.10;;
77769;SDS011;66961;51.482;9.160;2024-01-15T13:39:40;6.10;;;2.87;;
77769;SDS011;66961;51.482;9.160;2024-01-15T13:42:05;4.97;;;2.10;;
77769;SDS011;66961;51.482;9.160;2024-01-15T13:44:31;5.37;;;2.70;;
77769;SDS011;66961;51.482;9.160;2024-01-15T13:46:56;3.10;;;2.40;;
77769;SDS011;66961;51.482;9.160;2024-01-15T13:49:21;7.13;;;2.22;;
77769;SDS011;66961;51.482;9.160;2024-01-15T13:51:47;4.07;;;1.90;;
77769;SDS011;66961;51.482;9.160;2024-01-15T13:54:12;7.30;;;2.40;;
77769;SDS011;66961;51.482;9.160;2024-01-15T13:56:37;3.30;;;1.90;;
77769;SDS011;66961;51.482;9.160;2024-01-15T13:59:02;4.27;;;2.10;;
77769;SDS011;66961;51.482;9.160;2024-01-15T14:01:28;7.00;;;2.33;;
77769;SDS011;66961;51.482;9.160;2024-01-15T14:03:53;9.30;;;2.50;;
77769;SDS011;66961;51.482;9.160;2024-01-15T14:06:19;5.47;;;2.20;;
77769;SDS011;66961;51.482;9.160;2024-01-15T14:08:44;9.30;;;2.83;;
77769;SDS011;66961;51.482;9.160;2024-01-15T14:11:09;2.30;;;1.83;;
77769;SDS011;66961;51.482;9.160;2024-01-15T14:13:35;4.97;;;2.63;;
77769;SDS011;66961;51.482;9.160;2024-01-15T14:16:00;4.43;;;2.23;;
77769;SDS011;66961;51.482;9.160;2024-01-15T14:18:26;3.77;;;2.10;;
77769;SDS011;66961;51.482;9.160;2024-01-15T14:20:51;4.00;;;1.77;;
77769;SDS011;66961;51.482;9.160;2024-01-15T14:23:17;5.97;;;2.07;;
77769;SDS011;66961;51.482;9.160;2024-01-15T14:25:42;4.47;;;2.00;;
77769;SDS011;66961;51.482;9.160;2024-01-15T14:28:07;5.60;;;2.13;;
77769;SDS011;66961;51.482;9.160;2024-01-15T14:30:32;4.43;;;1.70;;
77769;SDS011;66961;51.482;9.160;2024-01-15T14:32:58;4.57;;;1.80;;
77769;SDS011;66961;51.482;9.160;2024-01-15T14:35:23;2.73;;;1.33;;
77769;SDS011;66961;51.482;9.160;2024-01-15T14:37:48;3.37;;;1.80;;
77769;SDS011;66961;51.482;9.160;2024-01-15T14:40:13;4.07;;;1.70;;
77769;SDS011;66961;51.482;9.160;2024-01-15T14:42:39;4.33;;;1.80;;
77769;SDS011;66961;51.482;9.160;2024-01-15T14:45:04;5.60;;;1.50;;
77769;SDS011;66961;51.482;9.160;2024-01-15T14:47:31;5.30;;;1.88;;
77769;SDS011;66961;51.482;9.160;2024-01-15T14:49:56;6.60;;;1.77;;